Wray, Colorado
Current Conditions -  °F | °C
As of 6:55 AM on Saturday 25 Oct 2014 (Local Time) from K2V5 Reporting Station
Clear Clear  
Wind Chill: 41°   Ceiling: Unl
Heat Index: 41°   Visibility: 10mi
Dew Point: 31°   Wind: 3mph
Humidity: 69%   Direction: 340°NNW
Pressure: 30.14"   Gusts: NA
Location:  40.08°N, 102.22°W
Report Text: K2V5 251255Z AUTO 34003KT 10SM CLR 05/00 A3014 RMK AO2 T00481005
Loading
Personal Weather Stations






























Interactive Weather Map New forecast layout! Learn more

10-Day Weather Forecast

Advertisements
Track Severe Weather on mobile